sensor_id;sensor_type;location;lat;lon;timestamp;temperature;humidity
47660;DHT22;33403;43.608;1.458;2023-07-16T00:01:03;21.50;99.90
47660;DHT22;33403;43.608;1.458;2023-07-16T00:03:29;21.50;99.90
47660;DHT22;33403;43.608;1.458;2023-07-16T00:05:55;21.50;99.90
47660;DHT22;33403;43.608;1.458;2023-07-16T00:08:21;21.40;99.90
47660;DHT22;33403;43.608;1.458;2023-07-16T00:10:47;21.50;99.90
47660;DHT22;33403;43.608;1.458;2023-07-16T00:13:12;21.40;99.90
47660;DHT22;33403;43.608;1.458;2023-07-16T00:15:38;21.50;99.90
47660;DHT22;33403;43.608;1.458;2023-07-16T00:18:04;21.40;99.90
47660;DHT22;33403;43.608;1.458;2023-07-16T00:20:31;21.40;99.90
47660;DHT22;33403;43.608;1.458;2023-07-16T00:22:57;21.40;99.90
47660;DHT22;33403;43.608;1.458;2023-07-16T00:25:23;21.40;99.90
47660;DHT22;33403;43.608;1.458;2023-07-16T00:27:49;21.40;99.90
47660;DHT22;33403;43.608;1.458;2023-07-16T00:30:14;21.40;99.90
47660;DHT22;33403;43.608;1.458;2023-07-16T00:32:40;21.40;99.90
47660;DHT22;33403;43.608;1.458;2023-07-16T00:35:06;21.40;99.90
47660;DHT22;33403;43.608;1.458;2023-07-16T00:37:33;21.40;99.90
47660;DHT22;33403;43.608;1.458;2023-07-16T00:39:59;21.40;99.90
47660;DHT22;33403;43.608;1.458;2023-07-16T00:42:25;21.40;99.90
47660;DHT22;33403;43.608;1.458;2023-07-16T00:44:50;21.40;99.90
47660;DHT22;33403;43.608;1.458;2023-07-16T00:47:16;21.30;99.90
47660;DHT22;33403;43.608;1.458;2023-07-16T00:49:42;21.30;99.90
47660;DHT22;33403;43.608;1.458;2023-07-16T00:52:11;21.30;99.90
47660;DHT22;33403;43.608;1.458;2023-07-16T00:54:39;21.20;99.90
47660;DHT22;33403;43.608;1.458;2023-07-16T00:57:05;21.30;99.90
47660;DHT22;33403;43.608;1.458;2023-07-16T00:59:31;21.20;99.90
47660;DHT22;33403;43.608;1.458;2023-07-16T01:01:58;21.20;99.90
47660;DHT22;33403;43.608;1.458;2023-07-16T01:04:23;21.30;99.90
47660;DHT22;33403;43.608;1.458;2023-07-16T01:06:53;21.30;99.90
47660;DHT22;33403;43.608;1.458;2023-07-16T01:09:21;21.20;99.90
47660;DHT22;33403;43.608;1.458;2023-07-16T01:11:48;21.20;99.90
47660;DHT22;33403;43.608;1.458;2023-07-16T01:14:17;21.10;99.90
47660;DHT22;33403;43.608;1.458;2023-07-16T01:16:43;21.10;99.90
47660;DHT22;33403;43.608;1.458;2023-07-16T01:19:10;21.10;99.90
47660;DHT22;33403;43.608;1.458;2023-07-16T01:21:47;21.10;99.90
47660;DHT22;33403;43.608;1.458;2023-07-16T01:30:01;21.10;99.90
47660;DHT22;33403;43.608;1.458;2023-07-16T01:32:28;21.10;99.90
47660;DHT22;33403;43.608;1.458;2023-07-16T01:34:55;21.10;99.90
47660;DHT22;33403;43.608;1.458;2023-07-16T01:37:21;21.10;99.90
47660;DHT22;33403;43.608;1.458;2023-07-16T01:39:47;21.10;99.90
47660;DHT22;33403;43.608;1.458;2023-07-16T01:42:12;21.10;99.90
47660;DHT22;33403;43.608;1.458;2023-07-16T01:44:38;21.10;99.90
47660;DHT22;33403;43.608;1.458;2023-07-16T01:47:11;21.10;99.90
47660;DHT22;33403;43.608;1.458;2023-07-16T01:49:37;21.10;99.90
47660;DHT22;33403;43.608;1.458;2023-07-16T01:52:04;21.10;99.90
47660;DHT22;33403;43.608;1.458;2023-07-16T01:54:30;21.10;99.90
47660;DHT22;33403;43.608;1.458;2023-07-16T01:56:56;21.10;99.90
47660;DHT22;33403;43.608;1.458;2023-07-16T01:59:22;21.00;99.90
47660;DHT22;33403;43.608;1.458;2023-07-16T02:01:47;21.00;99.90
47660;DHT22;33403;43.608;1.458;2023-07-16T02:04:13;21.00;99.90
47660;DHT22;33403;43.608;1.458;2023-07-16T02:06:39;21.00;99.90
47660;DHT22;33403;43.608;1.458;2023-07-16T02:09:04;21.00;99.90
47660;DHT22;33403;43.608;1.458;2023-07-16T02:11:30;21.00;99.90
47660;DHT22;33403;43.608;1.458;2023-07-16T02:13:55;21.00;99.90
47660;DHT22;33403;43.608;1.458;2023-07-16T02:16:21;20.90;99.90
47660;DHT22;33403;43.608;1.458;2023-07-16T02:18:47;21.00;99.90
47660;DHT22;33403;43.608;1.458;2023-07-16T02:21:12;21.00;99.90
47660;DHT22;33403;43.608;1.458;2023-07-16T02:23:38;21.00;99.90
47660;DHT22;33403;43.608;1.458;2023-07-16T02:26:04;21.00;99.90
47660;DHT22;33403;43.608;1.458;2023-07-16T02:28:29;20.90;99.90
47660;DHT22;33403;43.608;1.458;2023-07-16T02:30:55;20.90;99.90
47660;DHT22;33403;43.608;1.458;2023-07-16T02:33:20;21.00;99.90
47660;DHT22;33403;43.608;1.458;2023-07-16T02:35:47;21.00;99.90
47660;DHT22;33403;43.608;1.458;2023-07-16T02:38:14;21.00;99.90
47660;DHT22;33403;43.608;1.458;2023-07-16T02:40:47;20.90;99.90
47660;DHT22;33403;43.608;1.458;2023-07-16T02:43:13;21.00;99.90
47660;DHT22;33403;43.608;1.458;2023-07-16T02:45:39;20.90;99.90
47660;DHT22;33403;43.608;1.458;2023-07-16T02:48:06;20.90;99.90
47660;DHT22;33403;43.608;1.458;2023-07-16T02:50:36;21.00;99.90
47660;DHT22;33403;43.608;1.458;2023-07-16T02:53:05;20.90;99.90
47660;DHT22;33403;43.608;1.458;2023-07-16T02:55:31;20.80;99.90
47660;DHT22;33403;43.608;1.458;2023-07-16T02:57:57;20.90;99.90
47660;DHT22;33403;43.608;1.458;2023-07-16T03:00:22;20.80;99.90
47660;DHT22;33403;43.608;1.458;2023-07-16T03:02:48;20.80;99.90
47660;DHT22;33403;43.608;1.458;2023-07-16T03:05:17;20.80;99.90
47660;DHT22;33403;43.608;1.458;2023-07-16T03:07:43;20.90;99.90
47660;DHT22;33403;43.608;1.458;2023-07-16T03:10:09;20.80;99.90
47660;DHT22;33403;43.608;1.458;2023-07-16T03:12:35;20.80;99.90
47660;DHT22;33403;43.608;1.458;2023-07-16T03:15:00;20.80;99.90
47660;DHT22;33403;43.608;1.458;2023-07-16T03:17:26;20.80;99.90
47660;DHT22;33403;43.608;1.458;2023-07-16T03:19:51;20.80;99.90
47660;DHT22;33403;43.608;1.458;2023-07-16T03:22:17;20.80;99.90
47660;DHT22;33403;43.608;1.458;2023-07-16T03:24:43;20.80;99.90
47660;DHT22;33403;43.608;1.458;2023-07-16T03:27:08;20.80;99.90
47660;DHT22;33403;43.608;1.458;2023-07-16T03:29:34;20.80;99.90
47660;DHT22;33403;43.608;1.458;2023-07-16T03:32:00;20.80;99.90
47660;DHT22;33403;43.608;1.458;2023-07-16T03:34:25;20.80;99.90
47660;DHT22;33403;43.608;1.458;2023-07-16T03:36:51;20.80;99.90
47660;DHT22;33403;43.608;1.458;2023-07-16T03:39:17;20.80;99.90
47660;DHT22;33403;43.608;1.458;2023-07-16T03:41:43;20.80;99.90
47660;DHT22;33403;43.608;1.458;2023-07-16T03:44:08;20.80;99.90
47660;DHT22;33403;43.608;1.458;2023-07-16T03:46:34;20.80;99.90
47660;DHT22;33403;43.608;1.458;2023-07-16T03:49:00;20.80;99.90
47660;DHT22;33403;43.608;1.458;2023-07-16T03:51:25;20.80;99.90
47660;DHT22;33403;43.608;1.458;2023-07-16T03:53:51;20.80;99.90
47660;DHT22;33403;43.608;1.458;2023-07-16T03:56:16;20.70;99.90
47660;DHT22;33403;43.608;1.458;2023-07-16T03:58:42;20.70;99.90
47660;DHT22;33403;43.608;1.458;2023-07-16T04:01:08;20.80;99.90
47660;DHT22;33403;43.608;1.458;2023-07-16T04:03:34;20.70;99.90
47660;DHT22;33403;43.608;1.458;2023-07-16T04:06:04;20.70;99.90
47660;DHT22;33403;43.608;1.458;2023-07-16T04:08:30;20.70;99.90
47660;DHT22;33403;43.608;1.458;2023-07-16T04:10:55;20.70;99.90
47660;DHT22;33403;43.608;1.458;2023-07-16T04:13:21;20.70;99.90
47660;DHT22;33403;43.608;1.458;2023-07-16T04:15:47;20.70;99.90
47660;DHT22;33403;43.608;1.458;2023-07-16T04:18:12;20.60;99.90
47660;DHT22;33403;43.608;1.458;2023-07-16T04:20:38;20.60;99.90
47660;DHT22;33403;43.608;1.458;2023-07-16T04:23:03;20.60;99.90
47660;DHT22;33403;43.608;1.458;2023-07-16T04:25:29;20.60;99.90
47660;DHT22;33403;43.608;1.458;2023-07-16T04:27:56;20.60;99.90
47660;DHT22;33403;43.608;1.458;2023-07-16T04:30:22;20.60;99.90
47660;DHT22;33403;43.608;1.458;2023-07-16T04:32:47;20.60;99.90
47660;DHT22;33403;43.608;1.458;2023-07-16T04:35:13;20.60;99.90
47660;DHT22;33403;43.608;1.458;2023-07-16T04:37:39;20.60;99.90
47660;DHT22;33403;43.608;1.458;2023-07-16T04:40:05;20.60;99.90
47660;DHT22;33403;43.608;1.458;2023-07-16T04:42:31;20.60;99.90
47660;DHT22;33403;43.608;1.458;2023-07-16T04:44:57;20.60;99.90
47660;DHT22;33403;43.608;1.458;2023-07-16T04:47:22;20.60;99.90
47660;DHT22;33403;43.608;1.458;2023-07-16T04:49:48;20.70;99.90
47660;DHT22;33403;43.608;1.458;2023-07-16T04:52:13;20.70;99.90
47660;DHT22;33403;43.608;1.458;2023-07-16T04:54:39;20.70;99.90
47660;DHT22;33403;43.608;1.458;2023-07-16T04:57:08;20.70;99.90
47660;DHT22;33403;43.608;1.458;2023-07-16T04:59:34;20.60;99.90
47660;DHT22;33403;43.608;1.458;2023-07-16T05:02:05;20.60;99.90
47660;DHT22;33403;43.608;1.458;2023-07-16T05:04:31;20.60;99.90
47660;DHT22;33403;43.608;1.458;2023-07-16T05:06:56;20.60;99.90
47660;DHT22;33403;43.608;1.458;2023-07-16T05:09:22;20.70;99.90
47660;DHT22;33403;43.608;1.458;2023-07-16T05:11:47;20.70;99.90
47660;DHT22;33403;43.608;1.458;2023-07-16T05:14:13;20.70;99.90
47660;DHT22;33403;43.608;1.458;2023-07-16T05:16:39;20.80;99.90
47660;DHT22;33403;43.608;1.458;2023-07-16T05:19:04;20.80;99.90
47660;DHT22;33403;43.608;1.458;2023-07-16T05:21:30;20.80;99.90
47660;DHT22;33403;43.608;1.458;2023-07-16T05:23:56;20.80;99.90
47660;DHT22;33403;43.608;1.458;2023-07-16T05:26:21;20.80;99.90
47660;DHT22;33403;43.608;1.458;2023-07-16T05:28:47;20.80;99.90
47660;DHT22;33403;43.608;1.458;2023-07-16T05:31:13;20.80;99.90
47660;DHT22;33403;43.608;1.458;2023-07-16T05:33:38;20.90;99.90
47660;DHT22;33403;43.608;1.458;2023-07-16T05:36:04;20.90;99.90
47660;DHT22;33403;43.608;1.458;2023-07-16T05:38:30;21.00;99.90
47660;DHT22;33403;43.608;1.458;2023-07-16T05:41:01;21.00;99.90
47660;DHT22;33403;43.608;1.458;2023-07-16T05:43:27;21.10;99.90
47660;DHT22;33403;43.608;1.458;2023-07-16T05:45:53;21.10;99.90
47660;DHT22;33403;43.608;1.458;2023-07-16T05:48:19;21.20;99.90
47660;DHT22;33403;43.608;1.458;2023-07-16T05:50:45;21.20;99.90
47660;DHT22;33403;43.608;1.458;2023-07-16T05:53:11;21.20;99.90
47660;DHT22;33403;43.608;1.458;2023-07-16T05:55:39;21.30;99.90
47660;DHT22;33403;43.608;1.458;2023-07-16T05:58:04;21.20;99.90
47660;DHT22;33403;43.608;1.458;2023-07-16T06:00:30;21.30;99.90
47660;DHT22;33403;43.608;1.458;2023-07-16T06:02:55;21.40;99.90
47660;DHT22;33403;43.608;1.458;2023-07-16T06:05:22;21.50;99.90
47660;DHT22;33403;43.608;1.458;2023-07-16T06:07:47;21.60;99.90
47660;DHT22;33403;43.608;1.458;2023-07-16T06:10:13;21.70;99.90
47660;DHT22;33403;43.608;1.458;2023-07-16T06:12:39;21.80;99.90
47660;DHT22;33403;43.608;1.458;2023-07-16T06:15:05;21.90;99.90
47660;DHT22;33403;43.608;1.458;2023-07-16T06:17:30;21.90;99.90
47660;DHT22;33403;43.608;1.458;2023-07-16T06:19:56;22.00;99.90
47660;DHT22;33403;43.608;1.458;2023-07-16T06:22:23;22.00;99.90
47660;DHT22;33403;43.608;1.458;2023-07-16T06:24:48;22.00;99.90
47660;DHT22;33403;43.608;1.458;2023-07-16T06:27:14;22.10;99.90
47660;DHT22;33403;43.608;1.458;2023-07-16T06:29:40;22.10;99.90
47660;DHT22;33403;43.608;1.458;2023-07-16T06:32:06;22.20;99.90
47660;DHT22;33403;43.608;1.458;2023-07-16T06:34:32;22.20;99.90
47660;DHT22;33403;43.608;1.458;2023-07-16T06:36:58;22.20;99.90
47660;DHT22;33403;43.608;1.458;2023-07-16T06:39:24;22.30;99.90
47660;DHT22;33403;43.608;1.458;2023-07-16T06:41:49;22.30;99.90
47660;DHT22;33403;43.608;1.458;2023-07-16T06:44:15;22.40;99.90
47660;DHT22;33403;43.608;1.458;2023-07-16T06:46:41;22.40;99.90
47660;DHT22;33403;43.608;1.458;2023-07-16T06:49:07;22.50;99.90
47660;DHT22;33403;43.608;1.458;2023-07-16T06:51:33;22.60;99.90
47660;DHT22;33403;43.608;1.458;2023-07-16T06:53:59;22.70;99.90
47660;DHT22;33403;43.608;1.458;2023-07-16T06:56:25;22.80;99.90
47660;DHT22;33403;43.608;1.458;2023-07-16T06:58:50;22.80;99.90
47660;DHT22;33403;43.608;1.458;2023-07-16T07:01:16;22.90;99.90
47660;DHT22;33403;43.608;1.458;2023-07-16T07:03:41;22.80;99.90
47660;DHT22;33403;43.608;1.458;2023-07-16T07:06:07;22.70;99.90
47660;DHT22;33403;43.608;1.458;2023-07-16T07:08:36;22.70;99.90
47660;DHT22;33403;43.608;1.458;2023-07-16T07:11:02;22.70;99.90
47660;DHT22;33403;43.608;1.458;2023-07-16T07:13:27;22.70;99.90
47660;DHT22;33403;43.608;1.458;2023-07-16T07:15:55;22.70;99.90
47660;DHT22;33403;43.608;1.458;2023-07-16T07:18:21;22.60;99.90
47660;DHT22;33403;43.608;1.458;2023-07-16T07:20:47;22.50;99.90
47660;DHT22;33403;43.608;1.458;2023-07-16T07:23:16;22.40;99.90
47660;DHT22;33403;43.608;1.458;2023-07-16T07:25:41;22.20;99.90
47660;DHT22;33403;43.608;1.458;2023-07-16T07:28:07;22.10;99.90
47660;DHT22;33403;43.608;1.458;2023-07-16T07:30:33;22.00;99.90
47660;DHT22;33403;43.608;1.458;2023-07-16T07:32:58;22.00;99.90
47660;DHT22;33403;43.608;1.458;2023-07-16T07:35:24;21.90;99.90
47660;DHT22;33403;43.608;1.458;2023-07-16T07:37:50;22.00;99.90
47660;DHT22;33403;43.608;1.458;2023-07-16T07:40:15;21.90;99.90
47660;DHT22;33403;43.608;1.458;2023-07-16T07:42:41;21.90;99.90
47660;DHT22;33403;43.608;1.458;2023-07-16T07:45:07;21.90;99.90
47660;DHT22;33403;43.608;1.458;2023-07-16T07:47:33;21.90;99.90
47660;DHT22;33403;43.608;1.458;2023-07-16T07:49:58;21.90;99.90
47660;DHT22;33403;43.608;1.458;2023-07-16T07:52:26;22.00;99.90
47660;DHT22;33403;43.608;1.458;2023-07-16T07:54:52;22.00;99.90
47660;DHT22;33403;43.608;1.458;2023-07-16T07:57:19;22.00;99.90
47660;DHT22;33403;43.608;1.458;2023-07-16T07:59:45;22.00;99.90
47660;DHT22;33403;43.608;1.458;2023-07-16T08:02:11;22.00;99.90
47660;DHT22;33403;43.608;1.458;2023-07-16T08:04:36;22.00;99.90
47660;DHT22;33403;43.608;1.458;2023-07-16T08:07:02;22.10;99.90
47660;DHT22;33403;43.608;1.458;2023-07-16T08:09:28;22.10;99.90
47660;DHT22;33403;43.608;1.458;2023-07-16T08:11:53;22.00;99.90
47660;DHT22;33403;43.608;1.458;2023-07-16T08:14:19;22.10;99.90
47660;DHT22;33403;43.608;1.458;2023-07-16T08:16:45;22.20;99.90
47660;DHT22;33403;43.608;1.458;2023-07-16T08:19:10;22.30;99.90
47660;DHT22;33403;43.608;1.458;2023-07-16T08:21:36;22.40;99.90
47660;DHT22;33403;43.608;1.458;2023-07-16T08:24:06;22.50;99.90
47660;DHT22;33403;43.608;1.458;2023-07-16T08:26:32;22.60;99.90
47660;DHT22;33403;43.608;1.458;2023-07-16T08:28:58;22.70;99.90
47660;DHT22;33403;43.608;1.458;2023-07-16T08:31:26;22.80;99.90
47660;DHT22;33403;43.608;1.458;2023-07-16T08:33:51;22.90;99.90
47660;DHT22;33403;43.608;1.458;2023-07-16T08:36:17;22.90;99.90
47660;DHT22;33403;43.608;1.458;2023-07-16T08:38:43;23.00;99.90
47660;DHT22;33403;43.608;1.458;2023-07-16T08:41:08;23.10;99.90
47660;DHT22;33403;43.608;1.458;2023-07-16T08:43:34;23.20;99.90
47660;DHT22;33403;43.608;1.458;2023-07-16T08:46:01;23.00;99.90
47660;DHT22;33403;43.608;1.458;2023-07-16T08:48:28;23.10;99.90
47660;DHT22;33403;43.608;1.458;2023-07-16T08:50:55;23.20;98.30
47660;DHT22;33403;43.608;1.458;2023-07-16T08:53:23;23.30;99.90
47660;DHT22;33403;43.608;1.458;2023-07-16T08:55:49;23.40;99.90
47660;DHT22;33403;43.608;1.458;2023-07-16T08:58:15;23.50;99.90
47660;DHT22;33403;43.608;1.458;2023-07-16T09:00:44;23.60;99.90
47660;DHT22;33403;43.608;1.458;2023-07-16T09:03:12;23.70;99.90
47660;DHT22;33403;43.608;1.458;2023-07-16T09:05:47;23.70;99.70
47660;DHT22;33403;43.608;1.458;2023-07-16T09:08:13;23.70;99.20
47660;DHT22;33403;43.608;1.458;2023-07-16T09:10:43;23.80;99.90
47660;DHT22;33403;43.608;1.458;2023-07-16T09:13:09;23.90;99.90
47660;DHT22;33403;43.608;1.458;2023-07-16T09:15:35;24.00;99.40
47660;DHT22;33403;43.608;1.458;2023-07-16T09:18:01;24.00;99.90
47660;DHT22;33403;43.608;1.458;2023-07-16T09:20:27;24.10;99.30
47660;DHT22;33403;43.608;1.458;2023-07-16T09:22:54;24.10;98.70
47660;DHT22;33403;43.608;1.458;2023-07-16T09:25:32;24.10;98.30
47660;DHT22;33403;43.608;1.458;2023-07-16T09:28:03;24.10;98.20
47660;DHT22;33403;43.608;1.458;2023-07-16T09:30:33;24.10;97.80
47660;DHT22;33403;43.608;1.458;2023-07-16T09:33:18;24.20;96.90
47660;DHT22;33403;43.608;1.458;2023-07-16T09:35:48;24.20;94.70
47660;DHT22;33403;43.608;1.458;2023-07-16T09:38:14;24.30;96.00
47660;DHT22;33403;43.608;1.458;2023-07-16T09:40:40;24.40;95.80
47660;DHT22;33403;43.608;1.458;2023-07-16T09:43:10;24.40;94.40
47660;DHT22;33403;43.608;1.458;2023-07-16T09:45:36;24.50;94.60
47660;DHT22;33403;43.608;1.458;2023-07-16T09:48:03;24.60;94.50
47660;DHT22;33403;43.608;1.458;2023-07-16T09:50:31;24.50;93.50
47660;DHT22;33403;43.608;1.458;2023-07-16T09:52:58;24.60;95.60
47660;DHT22;33403;43.608;1.458;2023-07-16T09:55:24;24.70;94.00
47660;DHT22;33403;43.608;1.458;2023-07-16T09:57:53;24.60;92.80
47660;DHT22;33403;43.608;1.458;2023-07-16T10:00:21;24.60;94.10
47660;DHT22;33403;43.608;1.458;2023-07-16T10:02:48;24.70;91.90
47660;DHT22;33403;43.608;1.458;2023-07-16T10:05:23;24.70;90.80
47660;DHT22;33403;43.608;1.458;2023-07-16T10:07:52;24.70;91.20
47660;DHT22;33403;43.608;1.458;2023-07-16T10:10:18;24.70;90.90
47660;DHT22;33403;43.608;1.458;2023-07-16T10:13:00;24.80;90.60
47660;DHT22;33403;43.608;1.458;2023-07-16T10:15:27;24.80;91.10
47660;DHT22;33403;43.608;1.458;2023-07-16T10:17:53;24.90;92.30
47660;DHT22;33403;43.608;1.458;2023-07-16T10:20:35;24.90;91.40
47660;DHT22;33403;43.608;1.458;2023-07-16T10:23:15;24.90;90.80
47660;DHT22;33403;43.608;1.458;2023-07-16T10:25:58;24.90;90.00
47660;DHT22;33403;43.608;1.458;2023-07-16T10:28:24;24.90;90.50
47660;DHT22;33403;43.608;1.458;2023-07-16T10:30:50;24.90;91.30
47660;DHT22;33403;43.608;1.458;2023-07-16T10:33:17;25.00;88.20
47660;DHT22;33403;43.608;1.458;2023-07-16T10:35:44;24.90;83.60
47660;DHT22;33403;43.608;1.458;2023-07-16T10:38:10;25.00;86.60
47660;DHT22;33403;43.608;1.458;2023-07-16T10:40:43;25.00;88.60
47660;DHT22;33403;43.608;1.458;2023-07-16T10:43:09;25.00;82.30
47660;DHT22;33403;43.608;1.458;2023-07-16T10:45:35;25.00;84.80
47660;DHT22;33403;43.608;1.458;2023-07-16T10:48:01;24.90;81.80
47660;DHT22;33403;43.608;1.458;2023-07-16T10:50:27;24.90;85.20
47660;DHT22;33403;43.608;1.458;2023-07-16T10:52:56;25.00;85.50
47660;DHT22;33403;43.608;1.458;2023-07-16T10:55:23;25.10;84.60
47660;DHT22;33403;43.608;1.458;2023-07-16T10:57:49;25.10;83.50
47660;DHT22;33403;43.608;1.458;2023-07-16T11:00:18;25.20;78.60
47660;DHT22;33403;43.608;1.458;2023-07-16T11:02:44;25.30;84.50
47660;DHT22;33403;43.608;1.458;2023-07-16T11:05:11;25.30;81.30
47660;DHT22;33403;43.608;1.458;2023-07-16T11:07:37;25.30;82.20
47660;DHT22;33403;43.608;1.458;2023-07-16T11:10:03;25.40;81.40
47660;DHT22;33403;43.608;1.458;2023-07-16T11:12:28;25.40;76.50
47660;DHT22;33403;43.608;1.458;2023-07-16T11:14:55;25.40;79.80
47660;DHT22;33403;43.608;1.458;2023-07-16T11:17:22;25.50;82.10
47660;DHT22;33403;43.608;1.458;2023-07-16T11:19:51;25.40;69.70
47660;DHT22;33403;43.608;1.458;2023-07-16T11:22:17;25.20;74.70
47660;DHT22;33403;43.608;1.458;2023-07-16T11:24:44;25.20;75.10
47660;DHT22;33403;43.608;1.458;2023-07-16T11:27:36;25.30;72.70
47660;DHT22;33403;43.608;1.458;2023-07-16T11:30:05;25.40;72.80
47660;DHT22;33403;43.608;1.458;2023-07-16T11:32:33;25.40;75.50
47660;DHT22;33403;43.608;1.458;2023-07-16T11:35:03;25.50;76.60
47660;DHT22;33403;43.608;1.458;2023-07-16T11:37:34;25.50;75.00
47660;DHT22;33403;43.608;1.458;2023-07-16T11:40:08;25.50;72.30
47660;DHT22;33403;43.608;1.458;2023-07-16T11:42:39;25.50;71.70
47660;DHT22;33403;43.608;1.458;2023-07-16T11:45:14;25.60;75.90
47660;DHT22;33403;43.608;1.458;2023-07-16T11:47:40;25.70;71.30
47660;DHT22;33403;43.608;1.458;2023-07-16T11:50:06;25.70;75.70
47660;DHT22;33403;43.608;1.458;2023-07-16T11:52:32;25.80;75.90
47660;DHT22;33403;43.608;1.458;2023-07-16T11:54:59;25.70;75.60
47660;DHT22;33403;43.608;1.458;2023-07-16T11:57:25;25.70;73.90
47660;DHT22;33403;43.608;1.458;2023-07-16T11:59:51;25.80;75.80
47660;DHT22;33403;43.608;1.458;2023-07-16T12:02:16;25.90;75.10
47660;DHT22;33403;43.608;1.458;2023-07-16T12:04:42;25.80;72.20
47660;DHT22;33403;43.608;1.458;2023-07-16T12:07:08;25.90;70.00
47660;DHT22;33403;43.608;1.458;2023-07-16T12:09:33;25.70;68.30
47660;DHT22;33403;43.608;1.458;2023-07-16T12:12:00;25.60;69.50
47660;DHT22;33403;43.608;1.458;2023-07-16T12:14:26;25.70;66.90
47660;DHT22;33403;43.608;1.458;2023-07-16T12:16:51;25.70;70.80
47660;DHT22;33403;43.608;1.458;2023-07-16T12:19:17;25.70;71.50
47660;DHT22;33403;43.608;1.458;2023-07-16T12:21:43;25.80;72.50
47660;DHT22;33403;43.608;1.458;2023-07-16T12:24:08;25.80;72.90
47660;DHT22;33403;43.608;1.458;2023-07-16T12:26:34;25.80;73.50
47660;DHT22;33403;43.608;1.458;2023-07-16T12:29:01;25.80;73.00
47660;DHT22;33403;43.608;1.458;2023-07-16T12:31:32;25.80;74.80
47660;DHT22;33403;43.608;1.458;2023-07-16T12:33:59;25.80;75.70
47660;DHT22;33403;43.608;1.458;2023-07-16T12:36:24;25.90;73.70
47660;DHT22;33403;43.608;1.458;2023-07-16T12:38:50;25.90;75.30
47660;DHT22;33403;43.608;1.458;2023-07-16T12:41:16;25.90;75.70
47660;DHT22;33403;43.608;1.458;2023-07-16T12:43:41;25.90;74.10
47660;DHT22;33403;43.608;1.458;2023-07-16T12:46:07;25.90;74.80
47660;DHT22;33403;43.608;1.458;2023-07-16T12:48:33;25.80;73.20
47660;DHT22;33403;43.608;1.458;2023-07-16T12:50:59;25.90;74.10
47660;DHT22;33403;43.608;1.458;2023-07-16T12:53:25;25.90;75.40
47660;DHT22;33403;43.608;1.458;2023-07-16T12:55:51;26.00;74.30
47660;DHT22;33403;43.608;1.458;2023-07-16T12:58:17;25.90;75.10
47660;DHT22;33403;43.608;1.458;2023-07-16T13:00:42;25.90;71.30
47660;DHT22;33403;43.608;1.458;2023-07-16T13:03:08;25.90;73.30
47660;DHT22;33403;43.608;1.458;2023-07-16T13:05:37;26.00;74.20
47660;DHT22;33403;43.608;1.458;2023-07-16T13:08:03;26.00;72.50
47660;DHT22;33403;43.608;1.458;2023-07-16T13:10:29;26.00;75.10
47660;DHT22;33403;43.608;1.458;2023-07-16T13:12:55;26.10;72.70
47660;DHT22;33403;43.608;1.458;2023-07-16T13:15:20;26.10;72.20
47660;DHT22;33403;43.608;1.458;2023-07-16T13:17:46;26.10;71.10
47660;DHT22;33403;43.608;1.458;2023-07-16T13:20:13;26.10;73.60
47660;DHT22;33403;43.608;1.458;2023-07-16T13:22:39;26.10;74.00
47660;DHT22;33403;43.608;1.458;2023-07-16T13:25:05;26.00;74.30
47660;DHT22;33403;43.608;1.458;2023-07-16T13:27:30;26.00;73.80
47660;DHT22;33403;43.608;1.458;2023-07-16T13:29:56;26.10;73.80
47660;DHT22;33403;43.608;1.458;2023-07-16T13:32:22;26.10;73.40
47660;DHT22;33403;43.608;1.458;2023-07-16T13:34:47;26.20;73.20
47660;DHT22;33403;43.608;1.458;2023-07-16T13:37:13;26.20;74.40
47660;DHT22;33403;43.608;1.458;2023-07-16T13:39:39;26.20;72.00
47660;DHT22;33403;43.608;1.458;2023-07-16T13:42:05;26.20;71.50
47660;DHT22;33403;43.608;1.458;2023-07-16T13:44:35;26.20;71.90
47660;DHT22;33403;43.608;1.458;2023-07-16T13:47:00;26.10;73.40
47660;DHT22;33403;43.608;1.458;2023-07-16T13:49:26;26.10;73.20
47660;DHT22;33403;43.608;1.458;2023-07-16T13:51:52;26.10;69.60
47660;DHT22;33403;43.608;1.458;2023-07-16T13:54:17;26.10;70.70
47660;DHT22;33403;43.608;1.458;2023-07-16T13:56:44;26.10;71.20
47660;DHT22;33403;43.608;1.458;2023-07-16T13:59:09;26.10;73.40
47660;DHT22;33403;43.608;1.458;2023-07-16T14:01:39;26.10;72.60
47660;DHT22;33403;43.608;1.458;2023-07-16T14:04:05;26.10;74.00
47660;DHT22;33403;43.608;1.458;2023-07-16T14:06:31;26.10;74.70
47660;DHT22;33403;43.608;1.458;2023-07-16T14:08:58;26.10;74.10
47660;DHT22;33403;43.608;1.458;2023-07-16T14:11:24;26.20;72.10
47660;DHT22;33403;43.608;1.458;2023-07-16T14:13:50;26.20;73.40
47660;DHT22;33403;43.608;1.458;2023-07-16T14:16:20;26.20;73.20
47660;DHT22;33403;43.608;1.458;2023-07-16T14:18:51;26.20;74.20
47660;DHT22;33403;43.608;1.458;2023-07-16T14:21:18;26.30;73.50
47660;DHT22;33403;43.608;1.458;2023-07-16T14:23:43;26.30;74.60
47660;DHT22;33403;43.608;1.458;2023-07-16T14:26:09;26.40;74.10
47660;DHT22;33403;43.608;1.458;2023-07-16T14:28:35;26.40;74.90
47660;DHT22;33403;43.608;1.458;2023-07-16T14:31:00;26.30;76.90
47660;DHT22;33403;43.608;1.458;2023-07-16T14:33:26;26.40;74.90
47660;DHT22;33403;43.608;1.458;2023-07-16T14:35:53;26.40;73.10
47660;DHT22;33403;43.608;1.458;2023-07-16T14:38:18;26.50;74.50
47660;DHT22;33403;43.608;1.458;2023-07-16T14:40:44;26.40;74.40
47660;DHT22;33403;43.608;1.458;2023-07-16T14:43:10;26.30;73.60
47660;DHT22;33403;43.608;1.458;2023-07-16T14:45:35;26.30;74.10
47660;DHT22;33403;43.608;1.458;2023-07-16T14:48:01;26.40;72.70
47660;DHT22;33403;43.608;1.458;2023-07-16T14:50:27;26.30;74.40
47660;DHT22;33403;43.608;1.458;2023-07-16T14:52:53;26.40;74.00
47660;DHT22;33403;43.608;1.458;2023-07-16T14:55:19;26.50;74.60
47660;DHT22;33403;43.608;1.458;2023-07-16T14:57:44;26.40;75.70
47660;DHT22;33403;43.608;1.458;2023-07-16T15:00:11;26.40;74.00
47660;DHT22;33403;43.608;1.458;2023-07-16T15:02:37;26.30;73.50
47660;DHT22;33403;43.608;1.458;2023-07-16T15:05:04;26.30;72.80
47660;DHT22;33403;43.608;1.458;2023-07-16T15:07:32;26.20;74.50
47660;DHT22;33403;43.608;1.458;2023-07-16T15:09:59;26.30;76.00
47660;DHT22;33403;43.608;1.458;2023-07-16T15:12:25;26.30;76.50
47660;DHT22;33403;43.608;1.458;2023-07-16T15:14:52;26.20;77.70
47660;DHT22;33403;43.608;1.458;2023-07-16T15:17:17;26.20;77.30
47660;DHT22;33403;43.608;1.458;2023-07-16T15:19:43;26.30;75.20
47660;DHT22;33403;43.608;1.458;2023-07-16T15:22:09;26.30;75.50
47660;DHT22;33403;43.608;1.458;2023-07-16T15:24:35;26.20;76.50
47660;DHT22;33403;43.608;1.458;2023-07-16T15:27:01;26.20;77.60
47660;DHT22;33403;43.608;1.458;2023-07-16T15:29:29;26.20;77.90
47660;DHT22;33403;43.608;1.458;2023-07-16T15:31:54;26.30;76.90